Time;durP1;ratioP1;P1;durP2;ratioP2;P2;SDS_P1;SDS_P2;PMS_P1;PMS_P2;Temp;Humidity;BMP_temperature;BMP_pressure;BME280_temperature;BME280_humidity;BME280_pressure;Samples;Min_cycle;Max_cycle;Signal;HPM_P1;HPM_P2
2023/07/08 00:00:40;;;;;;;0.90;0.90;;;20.70;86.00;;;;;;5051341;28;20202;-67
2023/07/08 00:03:07;;;;;;;1.05;1.05;;;20.70;86.00;;;;;;5035454;28;20210;-67
2023/07/08 00:05:35;;;;;;;1.60;1.00;;;20.70;86.00;;;;;;5051518;28;20235;-68
2023/07/08 00:08:03;;;;;;;0.90;0.90;;;20.70;85.90;;;;;;5054456;28;20783;-67
2023/07/08 00:10:30;;;;;;;1.30;1.20;;;20.60;85.70;;;;;;5053522;28;20190;-67
2023/07/08 00:12:59;;;;;;;1.95;0.85;;;20.60;85.70;;;;;;5051109;28;20201;-67
2023/07/08 00:15:28;;;;;;;1.02;1.00;;;20.60;85.60;;;;;;5052325;28;20256;-67
2023/07/08 00:17:56;;;;;;;1.00;1.00;;;20.60;85.50;;;;;;5036571;28;20205;-68
2023/07/08 00:20:31;;;;;;;1.00;1.00;;;20.60;86.30;;;;;;5065017;28;20667;-68
2023/07/08 00:23:00;;;;;;;1.08;1.05;;;20.60;85.40;;;;;;5064059;28;20862;-69
2023/07/08 00:25:32;;;;;;;2.95;0.80;;;20.60;85.30;;;;;;5058329;28;20189;-69
2023/07/08 00:27:59;;;;;;;0.80;0.80;;;20.70;85.30;;;;;;5041393;28;20265;-67
2023/07/08 00:30:29;;;;;;;1.10;1.10;;;20.70;85.30;;;;;;5062104;28;20235;-68
2023/07/08 00:32:59;;;;;;;1.00;0.90;;;20.70;85.30;;;;;;5067434;28;20201;-68
2023/07/08 00:35:31;;;;;;;1.00;1.00;;;20.60;85.40;;;;;;5058420;28;20218;-69
2023/07/08 00:38:01;;;;;;;1.20;1.10;;;20.60;85.40;;;;;;5061283;28;20214;-67
2023/07/08 00:40:29;;;;;;;0.80;0.80;;;20.50;85.30;;;;;;5065045;28;20198;-68
2023/07/08 00:42:57;;;;;;;1.33;1.23;;;20.50;85.20;;;;;;5058519;28;20210;-68
2023/07/08 00:45:36;;;;;;;1.10;1.10;;;20.50;85.20;;;;;;5063321;28;20251;-68
2023/07/08 00:48:12;;;;;;;1.05;1.05;;;20.50;85.10;;;;;;5049127;28;20225;-68
2023/07/08 00:50:39;;;;;;;1.20;1.20;;;20.50;85.00;;;;;;5059767;28;20198;-67
2023/07/08 00:53:24;;;;;;;1.08;1.08;;;20.50;85.00;;;;;;5052495;28;20235;-67
2023/07/08 00:55:53;;;;;;;1.10;1.10;;;20.50;84.90;;;;;;5053287;28;20201;-68
2023/07/08 00:58:23;;;;;;;1.40;1.30;;;20.40;84.90;;;;;;5051945;28;20194;-67
2023/07/08 01:00:51;;;;;;;1.55;1.13;;;20.40;85.00;;;;;;5058708;28;20209;-69
2023/07/08 01:03:20;;;;;;;1.15;1.15;;;20.40;85.10;;;;;;5046267;28;20653;-67
2023/07/08 01:05:48;;;;;;;1.67;1.52;;;20.40;85.20;;;;;;5058716;28;20198;-67
2023/07/08 01:08:15;;;;;;;1.17;1.08;;;20.40;85.20;;;;;;5062449;28;20244;-67
2023/07/08 01:10:50;;;;;;;1.15;1.15;;;20.40;85.30;;;;;;5045026;28;20203;-66
2023/07/08 01:13:18;;;;;;;1.20;1.10;;;20.40;86.20;;;;;;5032529;28;20206;-68
2023/07/08 01:15:48;;;;;;;0.98;0.98;;;20.40;85.50;;;;;;5057542;28;20280;-68
2023/07/08 01:18:20;;;;;;;0.93;0.93;;;20.40;85.40;;;;;;5049797;28;20200;-67
2023/07/08 01:20:49;;;;;;;1.10;1.00;;;20.40;85.20;;;;;;5065993;28;20594;-67
2023/07/08 01:23:18;;;;;;;0.85;0.85;;;20.30;84.90;;;;;;5064883;28;20277;-67
2023/07/08 01:25:46;;;;;;;0.73;0.73;;;20.30;84.70;;;;;;5063786;28;20182;-68
2023/07/08 01:28:14;;;;;;;0.80;0.80;;;20.30;84.50;;;;;;5050406;28;20800;-67
2023/07/08 01:30:42;;;;;;;0.98;0.98;;;20.30;84.20;;;;;;5063054;28;20200;-67
2023/07/08 01:33:17;;;;;;;0.65;0.65;;;20.40;84.10;;;;;;5065241;28;20292;-68
2023/07/08 01:35:44;;;;;;;0.93;0.93;;;20.40;83.90;;;;;;5055191;28;20189;-68
2023/07/08 01:38:18;;;;;;;0.70;0.70;;;20.40;83.70;;;;;;5055750;28;20201;-68
2023/07/08 01:40:52;;;;;;;0.70;0.70;;;20.40;83.50;;;;;;5065308;28;20625;-68
2023/07/08 01:43:19;;;;;;;0.90;0.90;;;20.40;83.50;;;;;;5054759;28;20197;-67
2023/07/08 01:45:48;;;;;;;0.70;0.70;;;20.40;83.50;;;;;;5062687;28;20208;-67
2023/07/08 01:48:17;;;;;;;1.08;1.08;;;20.40;83.50;;;;;;5060571;28;20215;-67
2023/07/08 01:50:56;;;;;;;0.90;0.90;;;20.40;83.60;;;;;;5052511;28;20205;-67
2023/07/08 01:53:30;;;;;;;1.52;1.08;;;20.40;83.70;;;;;;5054722;28;20308;-67
2023/07/08 01:55:57;;;;;;;2.38;1.08;;;20.40;83.90;;;;;;5057655;28;20212;-66
2023/07/08 01:58:26;;;;;;;1.00;1.00;;;20.40;84.20;;;;;;5040383;28;20213;-66
2023/07/08 02:00:54;;;;;;;0.95;0.95;;;20.30;84.30;;;;;;5046058;28;20236;-67
2023/07/08 02:03:21;;;;;;;1.27;1.15;;;20.30;84.50;;;;;;5050260;28;20201;-67
2023/07/08 02:05:48;;;;;;;1.05;1.02;;;20.20;84.50;;;;;;5032589;28;20669;-67
2023/07/08 02:08:16;;;;;;;1.00;1.00;;;20.20;84.60;;;;;;5032778;28;20295;-67
2023/07/08 02:10:47;;;;;;;1.15;1.05;;;20.20;84.60;;;;;;5053096;28;20198;-67
2023/07/08 02:13:14;;;;;;;1.30;1.00;;;20.20;84.60;;;;;;5042230;28;20204;-67
2023/07/08 02:15:41;;;;;;;0.90;0.90;;;20.20;84.60;;;;;;5052174;28;20678;-67
2023/07/08 02:18:08;;;;;;;0.90;0.90;;;20.20;84.60;;;;;;5065777;28;20269;-67
2023/07/08 02:20:36;;;;;;;1.00;1.00;;;20.20;84.50;;;;;;5065104;28;20194;-68
2023/07/08 02:23:03;;;;;;;1.00;1.00;;;20.20;84.60;;;;;;5047422;28;20267;-67
2023/07/08 02:25:30;;;;;;;1.13;1.13;;;20.20;84.80;;;;;;5063875;28;20198;-67
2023/07/08 02:27:58;;;;;;;0.95;0.95;;;20.20;85.00;;;;;;5048445;28;20217;-66
2023/07/08 02:30:25;;;;;;;1.25;1.10;;;20.10;85.00;;;;;;5051382;28;20189;-67
2023/07/08 02:32:57;;;;;;;1.08;1.02;;;20.10;85.20;;;;;;5048733;28;20557;-67
2023/07/08 02:35:26;;;;;;;1.30;1.20;;;20.20;85.50;;;;;;5067741;28;20212;-68
2023/07/08 02:37:53;;;;;;;2.42;1.25;;;20.10;85.70;;;;;;5050589;28;20280;-67
2023/07/08 02:40:20;;;;;;;1.08;1.08;;;20.10;85.90;;;;;;5068006;28;20247;-67
2023/07/08 02:42:47;;;;;;;1.17;1.17;;;20.10;86.10;;;;;;5066544;28;20195;-67
2023/07/08 02:45:18;;;;;;;1.10;0.95;;;20.10;86.40;;;;;;5065445;28;20227;-67
2023/07/08 02:47:45;;;;;;;1.38;1.27;;;20.00;86.60;;;;;;5044474;28;20205;-67
2023/07/08 02:50:13;;;;;;;1.55;1.45;;;20.00;86.80;;;;;;5060098;28;20202;-67
2023/07/08 02:52:42;;;;;;;1.70;1.60;;;20.00;87.00;;;;;;5033367;28;20256;-67
2023/07/08 02:55:09;;;;;;;1.63;1.52;;;20.10;87.30;;;;;;5046211;28;20663;-67
2023/07/08 02:57:36;;;;;;;2.45;1.63;;;20.10;87.40;;;;;;5051308;28;20740;-68
2023/07/08 03:00:05;;;;;;;1.75;1.65;;;20.10;87.50;;;;;;5049219;28;20194;-68
2023/07/08 03:02:34;;;;;;;2.35;1.40;;;20.10;87.50;;;;;;5048451;28;20213;-68
2023/07/08 03:05:01;;;;;;;1.63;1.40;;;20.10;87.50;;;;;;5049126;28;20204;-68
2023/07/08 03:07:28;;;;;;;1.52;1.42;;;20.10;87.50;;;;;;5048818;28;20267;-67
2023/07/08 03:09:55;;;;;;;1.30;1.20;;;20.10;87.50;;;;;;5049495;28;20751;-68
2023/07/08 03:12:22;;;;;;;2.58;1.25;;;20.10;87.50;;;;;;5050978;28;20538;-68
2023/07/08 03:14:49;;;;;;;1.50;1.40;;;20.10;88.30;;;;;;5049936;28;20194;-68
2023/07/08 03:17:19;;;;;;;1.70;1.60;;;20.10;87.60;;;;;;5045287;28;20685;-68
2023/07/08 03:19:48;;;;;;;1.25;1.15;;;20.10;87.60;;;;;;5063986;28;20240;-67
2023/07/08 03:22:15;;;;;;;1.60;1.50;;;20.10;87.70;;;;;;5049151;28;20196;-68
2023/07/08 03:24:45;;;;;;;1.40;1.30;;;20.10;87.70;;;;;;5063088;28;20197;-68
2023/07/08 03:27:16;;;;;;;1.20;1.10;;;20.10;87.60;;;;;;5066901;28;20192;-68
2023/07/08 03:29:45;;;;;;;1.88;1.30;;;20.00;87.40;;;;;;5036980;28;20311;-68
2023/07/08 03:32:13;;;;;;;1.17;1.15;;;20.10;87.50;;;;;;5034458;28;20194;-68
2023/07/08 03:34:41;;;;;;;1.25;1.10;;;20.10;87.60;;;;;;5044374;28;20205;-67
2023/07/08 03:37:10;;;;;;;1.20;1.10;;;20.10;87.60;;;;;;5034034;28;20201;-68
2023/07/08 03:39:38;;;;;;;1.20;1.20;;;20.00;87.50;;;;;;5055977;28;20259;-67
2023/07/08 03:42:05;;;;;;;1.27;1.17;;;20.00;88.30;;;;;;5053569;28;20197;-67
2023/07/08 03:44:32;;;;;;;1.50;1.40;;;20.00;87.60;;;;;;5056443;28;20193;-67
2023/07/08 03:47:00;;;;;;;1.00;1.00;;;20.00;87.60;;;;;;5041708;28;20690;-67
2023/07/08 03:49:27;;;;;;;3.03;1.30;;;20.00;87.70;;;;;;5048077;28;20696;-67
2023/07/08 03:51:56;;;;;;;1.15;1.00;;;20.00;87.80;;;;;;5034098;28;20205;-68
2023/07/08 03:54:26;;;;;;;1.25;1.15;;;20.00;87.90;;;;;;5054903;28;20205;-68
2023/07/08 03:56:56;;;;;;;1.00;0.95;;;20.00;88.00;;;;;;5035754;28;20204;-68
2023/07/08 03:59:25;;;;;;;1.27;1.23;;;20.10;88.20;;;;;;5035590;28;20197;-67
2023/07/08 04:01:55;;;;;;;4.22;1.33;;;20.10;88.30;;;;;;5046971;28;20229;-66
2023/07/08 04:04:23;;;;;;;1.00;1.00;;;20.10;88.40;;;;;;5051422;28;20237;-67
2023/07/08 04:06:51;;;;;;;2.67;1.35;;;20.10;88.40;;;;;;5052723;28;20307;-67
2023/07/08 04:09:18;;;;;;;1.20;1.10;;;20.10;88.60;;;;;;5066759;28;20615;-67
2023/07/08 04:11:47;;;;;;;1.73;1.42;;;20.10;88.80;;;;;;5065528;28;20197;-68
2023/07/08 04:14:14;;;;;;;1.20;1.20;;;20.10;88.90;;;;;;5066488;28;20228;-68
2023/07/08 04:16:47;;;;;;;1.13;1.10;;;20.10;89.00;;;;;;5066503;28;20201;-67
2023/07/08 04:19:15;;;;;;;1.00;1.00;;;20.10;89.00;;;;;;5050512;28;20189;-66
2023/07/08 04:21:43;;;;;;;1.08;1.08;;;20.10;89.10;;;;;;5053604;28;20201;-67
2023/07/08 04:24:11;;;;;;;1.27;1.17;;;20.10;89.10;;;;;;5067936;28;20197;-68
2023/07/08 04:26:39;;;;;;;2.97;1.45;;;20.10;89.00;;;;;;5073076;28;20198;-67
2023/07/08 04:29:12;;;;;;;1.40;1.30;;;20.20;89.00;;;;;;5060557;28;20224;-66
2023/07/08 04:31:39;;;;;;;1.10;1.10;;;20.20;88.90;;;;;;5062503;28;20198;-67
2023/07/08 04:34:06;;;;;;;1.20;1.20;;;20.20;88.80;;;;;;5065550;28;20293;-67
2023/07/08 04:36:34;;;;;;;1.30;1.30;;;20.20;88.50;;;;;;5068426;28;20564;-67
2023/07/08 04:39:02;;;;;;;1.10;1.10;;;20.20;88.50;;;;;;5066613;28;20202;-67
2023/07/08 04:41:29;;;;;;;1.40;1.30;;;20.30;88.60;;;;;;5067771;28;20258;-68
2023/07/08 04:43:57;;;;;;;1.02;1.02;;;20.30;88.60;;;;;;5067242;28;20194;-66
2023/07/08 04:46:34;;;;;;;1.27;1.25;;;20.40;88.80;;;;;;5053252;28;20201;-67
2023/07/08 04:49:02;;;;;;;1.10;1.00;;;20.40;89.00;;;;;;5056336;28;20210;-67
2023/07/08 04:51:30;;;;;;;1.30;1.02;;;20.40;89.10;;;;;;5046561;28;20684;-67
2023/07/08 04:53:57;;;;;;;1.00;1.00;;;20.50;89.30;;;;;;5058585;28;20202;-67
2023/07/08 04:56:26;;;;;;;3.08;1.20;;;20.50;89.30;;;;;;5056844;28;20295;-68
2023/07/08 04:58:53;;;;;;;1.00;1.00;;;20.50;89.30;;;;;;5051122;28;20277;-68
2023/07/08 05:01:20;;;;;;;2.38;1.55;;;20.60;89.50;;;;;;5038443;28;20205;-67
2023/07/08 05:03:48;;;;;;;1.95;1.60;;;20.60;89.50;;;;;;5051573;28;20224;-67
2023/07/08 05:06:15;;;;;;;2.25;1.50;;;20.70;89.60;;;;;;5051461;28;20208;-67
2023/07/08 05:08:42;;;;;;;6.43;1.38;;;20.70;89.70;;;;;;5051556;28;20230;-67
2023/07/08 05:11:09;;;;;;;2.08;1.65;;;20.80;89.90;;;;;;5035712;28;20204;-67
2023/07/08 05:13:36;;;;;;;2.53;1.52;;;20.80;89.80;;;;;;5051886;28;20225;-67
2023/07/08 05:16:04;;;;;;;2.65;1.50;;;20.90;89.70;;;;;;5046739;28;20296;-68
2023/07/08 05:18:31;;;;;;;1.30;1.20;;;20.90;89.50;;;;;;5054783;28;20221;-68
2023/07/08 05:20:59;;;;;;;1.60;1.50;;;21.00;89.30;;;;;;5069180;28;20681;-68
2023/07/08 05:23:26;;;;;;;1.17;1.08;;;21.00;89.10;;;;;;5042259;28;20206;-68
2023/07/08 05:25:54;;;;;;;1.70;1.10;;;21.10;89.00;;;;;;5070054;28;20660;-68
2023/07/08 05:28:23;;;;;;;1.35;1.25;;;21.10;88.70;;;;;;5065463;28;20420;-66
2023/07/08 05:30:55;;;;;;;1.02;1.02;;;21.10;88.60;;;;;;5067741;28;20308;-67
2023/07/08 05:33:22;;;;;;;0.88;0.88;;;21.10;88.40;;;;;;5050659;28;20304;-68
2023/07/08 05:35:49;;;;;;;0.80;0.80;;;21.20;88.40;;;;;;5059983;28;20267;-67
2023/07/08 05:38:18;;;;;;;1.13;1.10;;;21.20;88.10;;;;;;5057893;28;20264;-68
2023/07/08 05:40:50;;;;;;;0.90;0.90;;;21.20;88.00;;;;;;5065601;28;20214;-67
2023/07/08 05:43:17;;;;;;;0.80;0.80;;;21.20;87.80;;;;;;5063422;28;20225;-67
2023/07/08 05:45:44;;;;;;;0.70;0.70;;;21.30;87.60;;;;;;5058462;28;20294;-67
2023/07/08 05:48:11;;;;;;;0.70;0.70;;;21.30;87.30;;;;;;5043871;28;20521;-67
2023/07/08 05:50:40;;;;;;;0.63;0.63;;;21.30;87.00;;;;;;5060151;28;20197;-68
2023/07/08 05:53:10;;;;;;;0.80;0.80;;;21.40;86.80;;;;;;5061072;28;20278;-66
2023/07/08 05:55:38;;;;;;;0.75;0.75;;;21.40;86.60;;;;;;5057242;28;20205;-67
2023/07/08 05:58:05;;;;;;;0.70;0.70;;;21.40;86.50;;;;;;5061890;28;20388;-67
2023/07/08 06:00:32;;;;;;;0.80;0.80;;;21.40;86.40;;;;;;5054913;28;20279;-67
2023/07/08 06:02:59;;;;;;;3.28;0.90;;;21.50;86.60;;;;;;5057444;28;20259;-67
2023/07/08 06:05:26;;;;;;;1.63;1.00;;;21.50;86.70;;;;;;5059348;28;20197;-67
2023/07/08 06:07:53;;;;;;;4.95;1.20;;;21.60;86.80;;;;;;5053893;28;20253;-67
2023/07/08 06:10:21;;;;;;;1.08;1.08;;;21.60;86.90;;;;;;5052218;28;20226;-67
2023/07/08 06:12:49;;;;;;;0.90;0.90;;;21.60;86.80;;;;;;5052970;28;20201;-67
2023/07/08 06:15:16;;;;;;;1.35;0.90;;;21.60;86.70;;;;;;5053862;28;20202;-67
2023/07/08 06:17:43;;;;;;;1.52;0.93;;;21.70;86.70;;;;;;5053184;28;20606;-68
2023/07/08 06:20:10;;;;;;;0.90;0.90;;;21.70;86.70;;;;;;5062367;28;20289;-68
2023/07/08 06:22:37;;;;;;;0.80;0.80;;;21.80;86.80;;;;;;5062375;28;20255;-68
2023/07/08 06:25:05;;;;;;;1.92;1.10;;;21.80;86.60;;;;;;5052357;28;20604;-68
2023/07/08 06:27:33;;;;;;;1.10;0.80;;;21.90;86.50;;;;;;5064170;28;20225;-67
2023/07/08 06:30:01;;;;;;;0.70;0.70;;;21.90;86.20;;;;;;5053359;28;20665;-67
2023/07/08 06:32:28;;;;;;;0.80;0.80;;;22.00;86.00;;;;;;5061016;28;20202;-67
2023/07/08 06:34:55;;;;;;;3.38;1.00;;;22.00;85.80;;;;;;5061376;28;20225;-67
2023/07/08 06:37:22;;;;;;;1.40;1.30;;;22.00;85.40;;;;;;5065541;28;21082;-67
2023/07/08 06:39:49;;;;;;;1.17;1.10;;;22.10;85.00;;;;;;5037327;28;20618;-67
2023/07/08 06:42:16;;;;;;;0.82;0.82;;;22.10;85.00;;;;;;5050591;28;20377;-67
2023/07/08 06:44:52;;;;;;;0.93;0.93;;;22.10;84.90;;;;;;5040090;28;20316;-67
2023/07/08 06:47:22;;;;;;;1.10;1.00;;;22.10;84.80;;;;;;5049930;28;20502;-67
2023/07/08 06:49:49;;;;;;;0.98;0.98;;;22.10;84.40;;;;;;5059067;28;20212;-67
2023/07/08 06:52:16;;;;;;;1.10;1.00;;;22.20;84.30;;;;;;5069118;28;20277;-67
2023/07/08 06:54:43;;;;;;;1.23;1.13;;;22.30;84.30;;;;;;5064406;28;20194;-67
2023/07/08 06:57:11;;;;;;;0.95;0.85;;;22.20;84.00;;;;;;5060334;28;20248;-67
2023/07/08 06:59:38;;;;;;;0.98;0.98;;;22.30;84.00;;;;;;5048416;28;20201;-67
2023/07/08 07:02:05;;;;;;;1.92;0.98;;;22.30;83.90;;;;;;5051956;28;20567;-68
2023/07/08 07:04:35;;;;;;;0.98;0.98;;;22.40;84.00;;;;;;5050931;28;20278;-67
2023/07/08 07:07:02;;;;;;;0.80;0.80;;;22.40;83.80;;;;;;5050452;28;20680;-67
2023/07/08 07:09:29;;;;;;;1.67;1.00;;;22.40;83.80;;;;;;5050574;28;20222;-67
2023/07/08 07:11:56;;;;;;;1.08;1.08;;;22.50;83.70;;;;;;5058616;28;20376;-68
2023/07/08 07:14:23;;;;;;;1.23;1.13;;;22.50;83.50;;;;;;5050267;28;20255;-68
2023/07/08 07:16:50;;;;;;;0.95;0.93;;;22.50;83.40;;;;;;5053147;28;20764;-67
2023/07/08 07:19:17;;;;;;;1.00;1.00;;;22.60;83.50;;;;;;5061207;28;20196;-67
2023/07/08 07:21:46;;;;;;;1.25;1.08;;;22.60;83.40;;;;;;5058587;28;20334;-68
2023/07/08 07:24:13;;;;;;;0.98;0.85;;;22.60;83.30;;;;;;5040928;28;20189;-67
2023/07/08 07:26:40;;;;;;;0.98;0.88;;;22.70;83.10;;;;;;5050153;28;20292;-68
2023/07/08 07:29:07;;;;;;;0.90;0.90;;;22.80;83.10;;;;;;5068181;28;20197;-67
2023/07/08 07:31:34;;;;;;;3.28;0.95;;;22.80;82.90;;;;;;5062246;28;20656;-67
2023/07/08 07:34:02;;;;;;;1.00;0.93;;;22.80;82.70;;;;;;5071203;28;20201;-67
2023/07/08 07:36:30;;;;;;;1.85;1.00;;;22.90;82.60;;;;;;5054173;28;20198;-68
2023/07/08 07:38:58;;;;;;;2.55;1.05;;;22.90;82.60;;;;;;5056970;28;20255;-66
2023/07/08 07:41:25;;;;;;;0.95;0.82;;;23.00;82.60;;;;;;5065369;28;20244;-66
2023/07/08 07:43:52;;;;;;;1.00;1.00;;;23.00;82.50;;;;;;5043881;28;20692;-67
2023/07/08 07:46:19;;;;;;;0.88;0.80;;;23.10;82.50;;;;;;5041685;28;20243;-67
2023/07/08 07:48:46;;;;;;;0.70;0.70;;;23.10;82.30;;;;;;5059569;28;20647;-69
2023/07/08 07:51:15;;;;;;;0.70;0.70;;;23.20;82.30;;;;;;5070296;28;20267;-69
2023/07/08 07:53:42;;;;;;;0.95;0.95;;;23.30;82.20;;;;;;5064399;28;20201;-67
2023/07/08 07:56:11;;;;;;;0.70;0.70;;;23.30;82.00;;;;;;5069629;28;20199;-67
2023/07/08 07:58:38;;;;;;;1.10;1.00;;;23.40;81.90;;;;;;5057923;28;20197;-68
2023/07/08 08:01:06;;;;;;;0.93;0.93;;;23.40;81.60;;;;;;5041419;28;20194;-67
2023/07/08 08:03:33;;;;;;;1.00;1.00;;;23.50;81.60;;;;;;5052067;28;20201;-67
2023/07/08 08:06:00;;;;;;;1.00;1.00;;;23.60;81.60;;;;;;5067547;28;20556;-67
2023/07/08 08:08:28;;;;;;;1.55;0.95;;;23.60;81.60;;;;;;5071691;28;20233;-68
2023/07/08 08:10:55;;;;;;;0.80;0.80;;;23.60;81.40;;;;;;5059303;28;20213;-67
2023/07/08 08:13:23;;;;;;;1.35;1.20;;;23.70;81.50;;;;;;5064186;28;20217;-67
2023/07/08 08:15:57;;;;;;;3.42;1.20;;;23.70;81.40;;;;;;5054692;28;20335;-68
2023/07/08 08:18:24;;;;;;;1.10;1.10;;;23.80;81.20;;;;;;5054701;28;20190;-67
2023/07/08 08:20:51;;;;;;;1.35;1.25;;;23.80;81.10;;;;;;5069726;28;20226;-68
2023/07/08 08:23:18;;;;;;;1.83;1.58;;;23.90;80.90;;;;;;5068256;28;20197;-68
2023/07/08 08:25:46;;;;;;;2.05;1.63;;;23.90;81.50;;;;;;5062660;28;20204;-68
2023/07/08 08:28:13;;;;;;;1.40;1.30;;;24.00;80.40;;;;;;5051895;28;20194;-68
2023/07/08 08:30:41;;;;;;;1.88;1.75;;;24.00;80.50;;;;;;5057495;28;20218;-68
2023/07/08 08:33:08;;;;;;;4.00;2.22;;;24.00;80.30;;;;;;5062936;28;20193;-68
2023/07/08 08:35:35;;;;;;;4.60;2.33;;;24.10;80.10;;;;;;5070990;28;20216;-68
2023/07/08 08:38:03;;;;;;;1.55;1.45;;;24.10;79.90;;;;;;5063006;28;20212;-68
2023/07/08 08:40:31;;;;;;;1.60;1.50;;;24.10;80.10;;;;;;5071502;28;20208;-68
2023/07/08 08:43:02;;;;;;;1.38;1.30;;;24.20;80.30;;;;;;5053065;28;20209;-68
2023/07/08 08:45:33;;;;;;;1.35;1.10;;;24.20;80.30;;;;;;5063001;28;20271;-67
2023/07/08 08:48:05;;;;;;;1.08;1.08;;;24.30;80.30;;;;;;5058938;28;20286;-68
2023/07/08 08:50:43;;;;;;;1.60;1.50;;;24.40;80.30;;;;;;5055886;28;20289;-68
2023/07/08 08:53:13;;;;;;;5.32;2.28;;;24.50;79.90;;;;;;5051165;28;20197;-67
2023/07/08 08:55:45;;;;;;;2.33;2.13;;;24.50;79.00;;;;;;5066751;28;20200;-68
2023/07/08 08:58:24;;;;;;;2.25;2.05;;;24.50;78.20;;;;;;5064273;28;20276;-67
2023/07/08 09:00:55;;;;;;;1.90;1.55;;;24.60;78.30;;;;;;5064696;28;20189;-67
2023/07/08 09:03:43;;;;;;;1.70;1.60;;;24.60;78.20;;;;;;5069352;28;20200;-67
2023/07/08 09:06:15;;;;;;;1.58;1.42;;;24.70;78.40;;;;;;5064371;28;20599;-68
2023/07/08 09:08:43;;;;;;;1.50;1.30;;;24.80;78.60;;;;;;5049877;28;20587;-68
2023/07/08 09:11:26;;;;;;;1.33;1.23;;;24.90;78.50;;;;;;5064478;28;20668;-67
2023/07/08 09:13:54;;;;;;;1.60;1.50;;;25.00;78.40;;;;;;5056548;28;20257;-68
2023/07/08 09:16:30;;;;;;;2.03;1.92;;;25.00;77.20;;;;;;5062447;28;20198;-66
2023/07/08 09:19:07;;;;;;;2.60;1.60;;;25.00;76.80;;;;;;5063414;28;20599;-67
2023/07/08 09:21:41;;;;;;;1.65;1.55;;;25.10;76.10;;;;;;5062837;28;20243;-68
2023/07/08 09:24:14;;;;;;;2.72;1.55;;;25.10;76.30;;;;;;5063593;28;20200;-67
2023/07/08 09:26:42;;;;;;;2.45;2.10;;;25.20;76.20;;;;;;5058608;28;20247;-68
2023/07/08 09:29:11;;;;;;;3.70;1.85;;;25.20;75.90;;;;;;5057366;28;20200;-67
2023/07/08 09:31:42;;;;;;;1.50;1.40;;;25.20;75.60;;;;;;5068610;28;20560;-67
2023/07/08 09:34:14;;;;;;;1.50;1.40;;;25.30;76.00;;;;;;5050307;28;20201;-66
2023/07/08 09:36:43;;;;;;;1.50;1.40;;;25.40;76.20;;;;;;5051322;28;20204;-68
2023/07/08 09:39:12;;;;;;;9.48;1.42;;;25.40;76.20;;;;;;5045782;28;20198;-67
2023/07/08 09:41:41;;;;;;;3.40;1.58;;;25.50;76.30;;;;;;5067290;28;20194;-67
2023/07/08 09:44:17;;;;;;;1.52;1.50;;;25.50;75.70;;;;;;5045616;28;20205;-67
2023/07/08 09:46:46;;;;;;;1.70;1.60;;;25.50;75.70;;;;;;5058936;28;20330;-67
2023/07/08 09:49:34;;;;;;;2.28;2.05;;;25.60;75.80;;;;;;5040284;28;20201;-67
2023/07/08 09:52:02;;;;;;;2.67;1.75;;;25.60;75.40;;;;;;5067261;28;20205;-67
2023/07/08 09:54:30;;;;;;;2.88;1.40;;;25.70;75.40;;;;;;5060641;28;20284;-67
2023/07/08 09:57:01;;;;;;;1.75;1.55;;;25.70;75.50;;;;;;5051317;28;20216;-67
2023/07/08 09:59:37;;;;;;;2.47;1.58;;;25.70;75.60;;;;;;5056458;28;20244;-67
2023/07/08 10:02:27;;;;;;;3.47;1.40;;;25.70;75.60;;;;;;5055747;28;20822;-67
2023/07/08 10:04:58;;;;;;;2.85;1.48;;;25.80;75.70;;;;;;5068140;28;20197;-67
2023/07/08 10:07:30;;;;;;;2.80;1.40;;;25.80;75.70;;;;;;5049429;28;20228;-66
2023/07/08 10:10:00;;;;;;;3.13;1.30;;;25.90;75.90;;;;;;5046619;28;20244;-65
2023/07/08 10:12:27;;;;;;;2.78;1.42;;;26.00;75.90;;;;;;5047248;28;20202;-66
2023/07/08 10:14:59;;;;;;;2.97;1.58;;;26.00;75.90;;;;;;5031804;28;20194;-66
2023/07/08 10:17:26;;;;;;;1.42;1.33;;;26.00;75.90;;;;;;5045199;28;20193;-67
2023/07/08 10:19:53;;;;;;;2.95;1.35;;;25.90;75.90;;;;;;5046978;28;20190;-67
2023/07/08 10:22:35;;;;;;;1.42;1.33;;;25.90;75.90;;;;;;5045722;28;20198;-67
2023/07/08 10:25:16;;;;;;;1.35;1.15;;;25.80;75.90;;;;;;5042431;28;20198;-66
2023/07/08 10:27:50;;;;;;;1.35;1.25;;;25.80;76.00;;;;;;5043076;28;20233;-68
2023/07/08 10:30:22;;;;;;;1.10;1.10;;;25.80;76.10;;;;;;5040416;28;20688;-67
2023/07/08 10:33:08;;;;;;;1.10;1.10;;;25.80;76.00;;;;;;5046383;28;20216;-67
2023/07/08 10:35:40;;;;;;;1.17;1.17;;;25.80;75.80;;;;;;5045338;28;20580;-67
2023/07/08 10:38:32;;;;;;;1.60;1.50;;;25.90;75.80;;;;;;5046510;28;20316;-67
2023/07/08 10:41:04;;;;;;;1.55;1.45;;;26.00;75.90;;;;;;5047483;28;20200;-67
2023/07/08 10:43:54;;;;;;;3.08;1.70;;;26.00;75.80;;;;;;5043197;28;20202;-67
2023/07/08 10:46:33;;;;;;;3.47;1.85;;;26.00;75.80;;;;;;5043305;28;20210;-67
2023/07/08 10:49:36;;;;;;;3.92;1.60;;;26.00;75.90;;;;;;5035795;28;20194;-66
2023/07/08 10:52:15;;;;;;;2.28;1.77;;;26.00;75.90;;;;;;5046937;28;20604;-67
2023/07/08 10:55:07;;;;;;;1.95;1.25;;;26.00;75.70;;;;;;5042052;28;20197;-67
2023/07/08 10:57:50;;;;;;;6.07;2.05;;;26.00;75.70;;;;;;5043372;28;20200;-67
2023/07/08 11:00:25;;;;;;;1.90;1.45;;;26.10;75.70;;;;;;5039638;28;20201;-67
2023/07/08 11:03:29;;;;;;;2.03;1.65;;;26.20;75.70;;;;;;5040946;28;20254;-67
2023/07/08 11:06:03;;;;;;;2.00;1.40;;;26.10;75.60;;;;;;5038645;28;20630;-67
2023/07/08 11:08:33;;;;;;;2.58;1.80;;;26.20;75.80;;;;;;5049409;28;20229;-67
2023/07/08 11:11:07;;;;;;;2.28;1.48;;;26.20;75.70;;;;;;5062119;28;20443;-67
2023/07/08 11:13:44;;;;;;;2.70;1.60;;;26.20;75.60;;;;;;5057882;28;20281;-67
2023/07/08 11:16:16;;;;;;;3.40;1.40;;;26.10;75.50;;;;;;5067863;28;20599;-67
2023/07/08 11:18:49;;;;;;;3.40;1.95;;;26.20;75.50;;;;;;5067086;28;20271;-68
2023/07/08 11:21:21;;;;;;;4.50;1.70;;;26.20;75.70;;;;;;5067678;28;20193;-67
2023/07/08 11:23:55;;;;;;;2.58;1.70;;;26.30;76.00;;;;;;5057587;28;20190;-68
2023/07/08 11:26:27;;;;;;;3.85;1.80;;;26.30;76.10;;;;;;5049510;28;20601;-66
2023/07/08 11:28:58;;;;;;;5.82;1.70;;;26.30;76.00;;;;;;5055667;28;20194;-66
2023/07/08 11:31:28;;;;;;;2.72;1.80;;;26.30;76.00;;;;;;5042325;28;20576;-66
2023/07/08 11:33:56;;;;;;;3.65;1.75;;;26.30;76.10;;;;;;5062839;28;20192;-66
2023/07/08 11:36:26;;;;;;;2.97;1.50;;;26.30;75.50;;;;;;5065499;28;20205;-66
2023/07/08 11:38:55;;;;;;;1.33;1.15;;;26.30;75.40;;;;;;5057255;28;20287;-67
2023/07/08 11:41:28;;;;;;;6.38;2.33;;;26.30;75.20;;;;;;5062020;28;20533;-69
2023/07/08 11:43:59;;;;;;;7.63;2.42;;;26.30;75.00;;;;;;5065799;28;20587;-69
2023/07/08 11:46:30;;;;;;;9.65;2.10;;;26.40;75.00;;;;;;5066131;28;20597;-69
2023/07/08 11:49:01;;;;;;;12.77;2.58;;;26.40;75.00;;;;;;5061980;28;20656;-68
2023/07/08 11:51:31;;;;;;;6.18;1.70;;;26.40;75.20;;;;;;5057545;28;20210;-68
2023/07/08 11:54:12;;;;;;;7.10;2.00;;;26.40;75.50;;;;;;5062567;28;20261;-69
2023/07/08 11:56:57;;;;;;;8.13;2.65;;;26.40;75.50;;;;;;5040554;28;20235;-69
2023/07/08 11:59:26;;;;;;;10.95;1.77;;;26.50;75.30;;;;;;5066006;28;20255;-69
2023/07/08 12:02:01;;;;;;;7.85;2.35;;;26.50;75.30;;;;;;5064695;28;20190;-69
2023/07/08 12:04:31;;;;;;;10.68;1.70;;;26.50;75.30;;;;;;5044145;28;20213;-69
2023/07/08 12:07:11;;;;;;;6.20;1.67;;;26.60;75.40;;;;;;5063075;28;20732;-69
2023/07/08 12:09:40;;;;;;;6.53;1.52;;;26.60;75.40;;;;;;5061356;28;20237;-69
2023/07/08 12:12:18;;;;;;;5.03;1.50;;;26.60;75.40;;;;;;5057887;28;20205;-68
2023/07/08 12:14:46;;;;;;;5.65;1.55;;;26.60;75.50;;;;;;5060898;28;20208;-69
2023/07/08 12:17:15;;;;;;;2.40;1.20;;;26.60;75.50;;;;;;5053623;28;20197;-69
2023/07/08 12:19:45;;;;;;;2.55;1.55;;;26.60;75.50;;;;;;5050210;28;20295;-69
2023/07/08 12:22:13;;;;;;;1.17;1.15;;;26.60;75.40;;;;;;5068471;28;20197;-69
2023/07/08 12:24:41;;;;;;;1.20;1.10;;;26.60;75.00;;;;;;5070605;28;20197;-70
2023/07/08 12:27:11;;;;;;;1.38;1.20;;;26.60;74.80;;;;;;5049269;28;20205;-69
2023/07/08 12:29:39;;;;;;;1.88;1.05;;;26.50;74.30;;;;;;5061785;28;20197;-69
2023/07/08 12:32:10;;;;;;;1.20;1.05;;;26.50;74.20;;;;;;5052765;28;20305;-70
2023/07/08 12:34:37;;;;;;;1.02;1.02;;;26.50;74.40;;;;;;5044056;28;20208;-69
2023/07/08 12:37:05;;;;;;;2.45;1.15;;;26.50;74.50;;;;;;5057442;28;20228;-68
2023/07/08 12:39:35;;;;;;;1.13;0.88;;;26.50;74.50;;;;;;5039241;28;20205;-70
2023/07/08 12:42:04;;;;;;;2.15;1.15;;;26.50;74.70;;;;;;5054946;28;20256;-69
2023/07/08 12:44:37;;;;;;;1.25;1.10;;;26.50;74.90;;;;;;5066427;28;20197;-70
2023/07/08 12:47:05;;;;;;;1.42;1.10;;;26.50;75.10;;;;;;5043660;28;20203;-69
2023/07/08 12:49:33;;;;;;;1.42;1.33;;;26.50;75.10;;;;;;5061528;28;20557;-68
2023/07/08 12:52:00;;;;;;;0.80;0.80;;;26.50;75.10;;;;;;5059974;28;20294;-69
2023/07/08 12:54:30;;;;;;;2.97;0.90;;;26.50;75.00;;;;;;5056512;28;20198;-66
2023/07/08 12:56:57;;;;;;;2.50;1.05;;;26.50;74.80;;;;;;5058433;28;20202;-67
2023/07/08 12:59:25;;;;;;;1.02;0.90;;;26.50;74.90;;;;;;5058696;28;20221;-67